Akaska, South Dakota
Current Conditions -  °F | °C
As of 10:52 AM on Thursday 27 Nov 2014 (Local Time) from KMBG Reporting Station
Overcast Overcast  
Wind Chill: -5°   Ceiling: 10000
Heat Index: 10°   Visibility: 10mi
Dew Point:   Wind: 12mph
Humidity: 70%   Direction: 130°SE
Pressure: 30.24"   Gusts: NA
Location:  45.33°N, 100.12°W
Report Text: KMBG 271652Z AUTO 13010KT 10SM FEW044 OVC100 M12/M17 A3024 RMK AO2 SLP283 T11221167
Loading
Personal Weather Stations






























Interactive Weather Map New forecast layout! Learn more

10-Day Weather Forecast

Advertisements
Track Severe Weather on mobile